sensor_id;sensor_type;location;lat;lon;timestamp;temperature;humidity
65472;DHT22;52068;50.710;14.492;2023-04-03T00:02:11;23.57;41.54
65472;DHT22;52068;50.710;14.492;2023-04-03T00:04:36;23.66;41.59
65472;DHT22;52068;50.710;14.492;2023-04-03T00:07:01;23.84;41.31
65472;DHT22;52068;50.710;14.492;2023-04-03T00:09:26;23.99;40.95
65472;DHT22;52068;50.710;14.492;2023-04-03T00:11:52;24.12;40.59
65472;DHT22;52068;50.710;14.492;2023-04-03T00:14:17;24.15;40.50
65472;DHT22;52068;50.710;14.492;2023-04-03T00:16:42;24.16;40.54
65472;DHT22;52068;50.710;14.492;2023-04-03T00:19:08;24.15;40.61
65472;DHT22;52068;50.710;14.492;2023-04-03T00:21:33;24.09;40.69
65472;DHT22;52068;50.710;14.492;2023-04-03T00:23:58;24.05;40.73
65472;DHT22;52068;50.710;14.492;2023-04-03T00:26:24;24.02;40.83
65472;DHT22;52068;50.710;14.492;2023-04-03T00:28:49;23.93;40.89
65472;DHT22;52068;50.710;14.492;2023-04-03T00:31:15;23.88;41.05
65472;DHT22;52068;50.710;14.492;2023-04-03T00:33:41;23.82;41.15
65472;DHT22;52068;50.710;14.492;2023-04-03T00:36:07;23.78;41.25
65472;DHT22;52068;50.710;14.492;2023-04-03T00:38:32;23.72;41.43
65472;DHT22;52068;50.710;14.492;2023-04-03T00:40:58;23.68;41.45
65472;DHT22;52068;50.710;14.492;2023-04-03T00:43:24;23.61;41.60
65472;DHT22;52068;50.710;14.492;2023-04-03T00:45:51;23.61;41.54
65472;DHT22;52068;50.710;14.492;2023-04-03T00:48:18;23.55;41.73
65472;DHT22;52068;50.710;14.492;2023-04-03T00:50:45;23.50;41.86
65472;DHT22;52068;50.710;14.492;2023-04-03T00:53:15;23.44;41.92
65472;DHT22;52068;50.710;14.492;2023-04-03T00:55:41;23.44;42.01
65472;DHT22;52068;50.710;14.492;2023-04-03T00:58:07;23.54;41.73
65472;DHT22;52068;50.710;14.492;2023-04-03T01:00:33;23.71;41.40
65472;DHT22;52068;50.710;14.492;2023-04-03T01:02:58;23.85;41.02
65472;DHT22;52068;50.710;14.492;2023-04-03T01:05:24;23.95;40.83
65472;DHT22;52068;50.710;14.492;2023-04-03T01:07:50;24.02;40.65
65472;DHT22;52068;50.710;14.492;2023-04-03T01:10:16;24.01;40.51
65472;DHT22;52068;50.710;14.492;2023-04-03T01:12:43;23.99;40.53
65472;DHT22;52068;50.710;14.492;2023-04-03T01:15:22;23.95;40.45
65472;DHT22;52068;50.710;14.492;2023-04-03T01:17:57;23.89;40.65
65472;DHT22;52068;50.710;14.492;2023-04-03T01:25:39;23.76;41.03
65472;DHT22;52068;50.710;14.492;2023-04-03T01:28:05;23.71;40.99
65472;DHT22;52068;50.710;14.492;2023-04-03T01:30:33;23.62;40.84
65472;DHT22;52068;50.710;14.492;2023-04-03T01:32:58;23.55;40.71
65472;DHT22;52068;50.710;14.492;2023-04-03T01:35:24;23.47;40.97
65472;DHT22;52068;50.710;14.492;2023-04-03T01:37:49;23.45;41.22
65472;DHT22;52068;50.710;14.492;2023-04-03T01:40:15;23.40;41.31
65472;DHT22;52068;50.710;14.492;2023-04-03T01:42:40;23.35;41.33
65472;DHT22;52068;50.710;14.492;2023-04-03T01:45:05;23.28;41.56
65472;DHT22;52068;50.710;14.492;2023-04-03T01:47:30;23.35;41.52
65472;DHT22;52068;50.710;14.492;2023-04-03T01:49:56;23.54;41.09
65472;DHT22;52068;50.710;14.492;2023-04-03T01:52:21;23.79;40.54
65472;DHT22;52068;50.710;14.492;2023-04-03T01:54:46;23.99;40.53
65472;DHT22;52068;50.710;14.492;2023-04-03T01:57:12;24.13;40.28
65472;DHT22;52068;50.710;14.492;2023-04-03T01:59:38;24.15;40.12
65472;DHT22;52068;50.710;14.492;2023-04-03T02:02:04;24.16;40.08
65472;DHT22;52068;50.710;14.492;2023-04-03T02:04:29;24.17;39.94
65472;DHT22;52068;50.710;14.492;2023-04-03T02:06:54;24.12;40.23
65472;DHT22;52068;50.710;14.492;2023-04-03T02:09:20;24.06;40.25
65472;DHT22;52068;50.710;14.492;2023-04-03T02:11:45;24.01;40.35
65472;DHT22;52068;50.710;14.492;2023-04-03T02:14:10;23.93;40.30
65472;DHT22;52068;50.710;14.492;2023-04-03T02:16:36;23.86;40.36
65472;DHT22;52068;50.710;14.492;2023-04-03T02:19:01;23.79;40.44
65472;DHT22;52068;50.710;14.492;2023-04-03T02:21:26;23.74;40.59
65472;DHT22;52068;50.710;14.492;2023-04-03T02:23:52;23.69;40.74
65472;DHT22;52068;50.710;14.492;2023-04-03T02:26:18;23.65;40.85
65472;DHT22;52068;50.710;14.492;2023-04-03T02:28:43;23.66;40.95
65472;DHT22;52068;50.710;14.492;2023-04-03T02:31:09;23.62;40.81
65472;DHT22;52068;50.710;14.492;2023-04-03T02:33:35;23.54;41.01
65472;DHT22;52068;50.710;14.492;2023-04-03T02:36:02;23.55;41.02
65472;DHT22;52068;50.710;14.492;2023-04-03T02:38:27;23.66;40.68
65472;DHT22;52068;50.710;14.492;2023-04-03T02:40:53;23.84;40.34
65472;DHT22;52068;50.710;14.492;2023-04-03T02:43:18;24.02;40.21
65472;DHT22;52068;50.710;14.492;2023-04-03T02:45:43;24.12;39.70
65472;DHT22;52068;50.710;14.492;2023-04-03T02:48:09;24.17;39.59
65472;DHT22;52068;50.710;14.492;2023-04-03T02:50:34;24.17;39.51
65472;DHT22;52068;50.710;14.492;2023-04-03T02:52:59;24.15;39.52
65472;DHT22;52068;50.710;14.492;2023-04-03T02:55:25;24.09;39.79
65472;DHT22;52068;50.710;14.492;2023-04-03T02:57:50;24.02;39.90
65472;DHT22;52068;50.710;14.492;2023-04-03T03:00:15;23.96;39.93
65472;DHT22;52068;50.710;14.492;2023-04-03T03:02:40;23.93;40.18
65472;DHT22;52068;50.710;14.492;2023-04-03T03:05:06;23.85;40.16
65472;DHT22;52068;50.710;14.492;2023-04-03T03:07:32;23.79;40.51
65472;DHT22;52068;50.710;14.492;2023-04-03T03:09:57;23.75;40.58
65472;DHT22;52068;50.710;14.492;2023-04-03T03:12:22;23.71;40.56
65472;DHT22;52068;50.710;14.492;2023-04-03T03:14:49;23.66;40.61
65472;DHT22;52068;50.710;14.492;2023-04-03T03:17:14;23.61;40.81
65472;DHT22;52068;50.710;14.492;2023-04-03T03:19:40;23.55;40.64
65472;DHT22;52068;50.710;14.492;2023-04-03T03:22:05;23.47;40.70
65472;DHT22;52068;50.710;14.492;2023-04-03T03:24:31;23.40;40.71
65472;DHT22;52068;50.710;14.492;2023-04-03T03:26:56;23.37;41.10
65472;DHT22;52068;50.710;14.492;2023-04-03T03:29:21;23.44;41.06
65472;DHT22;52068;50.710;14.492;2023-04-03T03:31:46;23.58;40.70
65472;DHT22;52068;50.710;14.492;2023-04-03T03:34:12;23.74;40.34
65472;DHT22;52068;50.710;14.492;2023-04-03T03:36:38;23.88;40.21
65472;DHT22;52068;50.710;14.492;2023-04-03T03:39:03;23.95;40.06
65472;DHT22;52068;50.710;14.492;2023-04-03T03:41:28;23.98;39.76
65472;DHT22;52068;50.710;14.492;2023-04-03T03:43:54;23.98;39.92
65472;DHT22;52068;50.710;14.492;2023-04-03T03:46:19;23.93;40.08
65472;DHT22;52068;50.710;14.492;2023-04-03T03:48:44;23.89;40.02
65472;DHT22;52068;50.710;14.492;2023-04-03T03:51:10;23.84;40.18
65472;DHT22;52068;50.710;14.492;2023-04-03T03:53:35;23.79;40.24
65472;DHT22;52068;50.710;14.492;2023-04-03T03:56:00;23.69;40.39
65472;DHT22;52068;50.710;14.492;2023-04-03T03:58:26;23.65;40.37
65472;DHT22;52068;50.710;14.492;2023-04-03T04:00:51;23.62;40.27
65472;DHT22;52068;50.710;14.492;2023-04-03T04:03:18;23.55;40.50
65472;DHT22;52068;50.710;14.492;2023-04-03T04:05:43;23.50;40.23
65472;DHT22;52068;50.710;14.492;2023-04-03T04:08:09;23.40;40.20
65472;DHT22;52068;50.710;14.492;2023-04-03T04:10:35;23.33;40.35
65472;DHT22;52068;50.710;14.492;2023-04-03T04:13:00;23.30;40.57
65472;DHT22;52068;50.710;14.492;2023-04-03T04:15:26;23.21;40.83
65472;DHT22;52068;50.710;14.492;2023-04-03T04:17:52;23.24;41.05
65472;DHT22;52068;50.710;14.492;2023-04-03T04:20:17;23.44;40.87
65472;DHT22;52068;50.710;14.492;2023-04-03T04:22:43;23.74;40.39
65472;DHT22;52068;50.710;14.492;2023-04-03T04:25:08;23.95;39.82
65472;DHT22;52068;50.710;14.492;2023-04-03T04:27:33;24.13;39.52
65472;DHT22;52068;50.710;14.492;2023-04-03T04:29:58;24.23;39.26
65472;DHT22;52068;50.710;14.492;2023-04-03T04:32:24;24.27;38.96
65472;DHT22;52068;50.710;14.492;2023-04-03T04:34:49;24.23;38.94
65472;DHT22;52068;50.710;14.492;2023-04-03T04:37:15;24.20;39.06
65472;DHT22;52068;50.710;14.492;2023-04-03T04:39:40;24.13;39.28
65472;DHT22;52068;50.710;14.492;2023-04-03T04:42:06;24.05;39.44
65472;DHT22;52068;50.710;14.492;2023-04-03T04:44:32;23.99;39.60
65472;DHT22;52068;50.710;14.492;2023-04-03T04:46:57;23.93;39.78
65472;DHT22;52068;50.710;14.492;2023-04-03T04:49:22;23.86;39.77
65472;DHT22;52068;50.710;14.492;2023-04-03T04:51:47;23.82;39.73
65472;DHT22;52068;50.710;14.492;2023-04-03T04:54:13;23.75;39.75
65472;DHT22;52068;50.710;14.492;2023-04-03T04:56:38;23.66;40.04
65472;DHT22;52068;50.710;14.492;2023-04-03T04:59:03;23.57;40.29
65472;DHT22;52068;50.710;14.492;2023-04-03T05:01:28;23.48;40.34
65472;DHT22;52068;50.710;14.492;2023-04-03T05:03:54;23.40;40.22
65472;DHT22;52068;50.710;14.492;2023-04-03T05:06:19;23.27;40.32
65472;DHT22;52068;50.710;14.492;2023-04-03T05:08:44;23.21;40.57
65472;DHT22;52068;50.710;14.492;2023-04-03T05:11:09;23.27;40.60
65472;DHT22;52068;50.710;14.492;2023-04-03T05:13:35;23.50;40.27
65472;DHT22;52068;50.710;14.492;2023-04-03T05:16:00;23.79;39.66
65472;DHT22;52068;50.710;14.492;2023-04-03T05:18:25;24.16;38.41
65472;DHT22;52068;50.710;14.492;2023-04-03T05:20:51;24.43;38.16
65472;DHT22;52068;50.710;14.492;2023-04-03T05:23:16;24.56;37.73
65472;DHT22;52068;50.710;14.492;2023-04-03T05:25:41;24.63;37.72
65472;DHT22;52068;50.710;14.492;2023-04-03T05:28:08;24.68;37.43
65472;DHT22;52068;50.710;14.492;2023-04-03T05:30:34;24.60;37.62
65472;DHT22;52068;50.710;14.492;2023-04-03T05:33:00;24.50;34.86
65472;DHT22;52068;50.710;14.492;2023-04-03T05:35:25;24.36;36.71
65472;DHT22;52068;50.710;14.492;2023-04-03T05:37:50;24.26;37.67
65472;DHT22;52068;50.710;14.492;2023-04-03T05:40:15;24.19;37.84
65472;DHT22;52068;50.710;14.492;2023-04-03T05:42:41;24.03;38.13
65472;DHT22;52068;50.710;14.492;2023-04-03T05:45:06;23.86;38.16
65472;DHT22;52068;50.710;14.492;2023-04-03T05:47:31;23.79;38.43
65472;DHT22;52068;50.710;14.492;2023-04-03T05:49:57;23.84;38.45
65472;DHT22;52068;50.710;14.492;2023-04-03T05:52:23;24.06;38.05
65472;DHT22;52068;50.710;14.492;2023-04-03T05:54:50;24.43;37.36
65472;DHT22;52068;50.710;14.492;2023-04-03T05:57:15;24.85;36.46
65472;DHT22;52068;50.710;14.492;2023-04-03T05:59:41;25.12;35.99
65472;DHT22;52068;50.710;14.492;2023-04-03T06:02:07;25.26;35.65
65472;DHT22;52068;50.710;14.492;2023-04-03T06:04:32;25.26;35.68
65472;DHT22;52068;50.710;14.492;2023-04-03T06:06:58;25.19;35.74
65472;DHT22;52068;50.710;14.492;2023-04-03T06:09:24;25.08;35.89
65472;DHT22;52068;50.710;14.492;2023-04-03T06:11:50;24.92;35.56
65472;DHT22;52068;50.710;14.492;2023-04-03T06:14:16;24.77;35.89
65472;DHT22;52068;50.710;14.492;2023-04-03T06:16:41;24.60;36.21
65472;DHT22;52068;50.710;14.492;2023-04-03T06:19:10;24.47;36.50
65472;DHT22;52068;50.710;14.492;2023-04-03T06:21:36;24.32;36.95
65472;DHT22;52068;50.710;14.492;2023-04-03T06:24:02;24.16;37.18
65472;DHT22;52068;50.710;14.492;2023-04-03T06:26:28;24.02;37.45
65472;DHT22;52068;50.710;14.492;2023-04-03T06:28:53;23.88;37.67
65472;DHT22;52068;50.710;14.492;2023-04-03T06:31:19;23.75;37.94
65472;DHT22;52068;50.710;14.492;2023-04-03T06:33:44;23.66;37.91
65472;DHT22;52068;50.710;14.492;2023-04-03T06:36:10;23.58;38.00
65472;DHT22;52068;50.710;14.492;2023-04-03T06:38:36;23.64;38.33
65472;DHT22;52068;50.710;14.492;2023-04-03T06:41:01;24.05;37.68
65472;DHT22;52068;50.710;14.492;2023-04-03T06:43:27;24.81;36.35
65472;DHT22;52068;50.710;14.492;2023-04-03T06:45:52;25.69;34.82
65472;DHT22;52068;50.710;14.492;2023-04-03T06:48:18;26.49;33.54
65472;DHT22;52068;50.710;14.492;2023-04-03T06:50:43;27.12;32.43
65472;DHT22;52068;50.710;14.492;2023-04-03T06:53:09;27.54;31.68
65472;DHT22;52068;50.710;14.492;2023-04-03T06:55:34;27.68;31.39
65472;DHT22;52068;50.710;14.492;2023-04-03T06:58:01;27.66;31.27
65472;DHT22;52068;50.710;14.492;2023-04-03T07:00:26;27.60;31.45
65472;DHT22;52068;50.710;14.492;2023-04-03T07:02:51;27.47;31.64
65472;DHT22;52068;50.710;14.492;2023-04-03T07:05:17;27.27;31.89
65472;DHT22;52068;50.710;14.492;2023-04-03T07:07:43;27.00;32.31
65472;DHT22;52068;50.710;14.492;2023-04-03T07:10:08;26.74;32.75
65472;DHT22;52068;50.710;14.492;2023-04-03T07:12:35;26.47;33.06
65472;DHT22;52068;50.710;14.492;2023-04-03T07:15:00;26.21;33.54
65472;DHT22;52068;50.710;14.492;2023-04-03T07:17:25;25.92;34.05
65472;DHT22;52068;50.710;14.492;2023-04-03T07:19:51;25.67;34.37
65472;DHT22;52068;50.710;14.492;2023-04-03T07:22:17;25.41;34.82
65472;DHT22;52068;50.710;14.492;2023-04-03T07:24:42;25.16;35.26
65472;DHT22;52068;50.710;14.492;2023-04-03T07:27:08;24.98;35.62
65472;DHT22;52068;50.710;14.492;2023-04-03T07:29:33;24.83;35.63
65472;DHT22;52068;50.710;14.492;2023-04-03T07:31:59;24.65;36.08
65472;DHT22;52068;50.710;14.492;2023-04-03T07:34:24;24.52;36.43
65472;DHT22;52068;50.710;14.492;2023-04-03T07:36:50;24.44;36.54
65472;DHT22;52068;50.710;14.492;2023-04-03T07:39:15;24.52;36.48
65472;DHT22;52068;50.710;14.492;2023-04-03T07:41:40;24.83;35.97
65472;DHT22;52068;50.710;14.492;2023-04-03T07:44:06;25.32;35.14
65472;DHT22;52068;50.710;14.492;2023-04-03T07:46:34;25.84;34.34
65472;DHT22;52068;50.710;14.492;2023-04-03T07:48:59;26.33;33.55
65472;DHT22;52068;50.710;14.492;2023-04-03T07:51:25;26.74;32.80
65472;DHT22;52068;50.710;14.492;2023-04-03T07:53:51;27.06;32.35
65472;DHT22;52068;50.710;14.492;2023-04-03T07:56:16;27.16;32.08
65472;DHT22;52068;50.710;14.492;2023-04-03T07:58:42;27.15;32.01
65472;DHT22;52068;50.710;14.492;2023-04-03T08:01:07;27.16;31.95
65472;DHT22;52068;50.710;14.492;2023-04-03T08:03:33;27.10;31.99
65472;DHT22;52068;50.710;14.492;2023-04-03T08:06:05;27.03;32.15
65472;DHT22;52068;50.710;14.492;2023-04-03T08:08:30;26.85;32.38
65472;DHT22;52068;50.710;14.492;2023-04-03T08:10:57;26.67;32.67
65472;DHT22;52068;50.710;14.492;2023-04-03T08:13:22;26.49;32.93
65472;DHT22;52068;50.710;14.492;2023-04-03T08:15:48;26.27;33.34
65472;DHT22;52068;50.710;14.492;2023-04-03T08:18:16;26.03;33.66
65472;DHT22;52068;50.710;14.492;2023-04-03T08:20:42;25.82;34.09
65472;DHT22;52068;50.710;14.492;2023-04-03T08:23:08;25.58;34.40
65472;DHT22;52068;50.710;14.492;2023-04-03T08:25:34;25.34;34.69
65472;DHT22;52068;50.710;14.492;2023-04-03T08:27:59;25.10;35.09
65472;DHT22;52068;50.710;14.492;2023-04-03T08:30:24;24.94;35.42
65472;DHT22;52068;50.710;14.492;2023-04-03T08:32:50;24.78;35.61
65472;DHT22;52068;50.710;14.492;2023-04-03T08:35:15;24.65;36.01
65472;DHT22;52068;50.710;14.492;2023-04-03T08:37:40;24.53;36.25
65472;DHT22;52068;50.710;14.492;2023-04-03T08:40:06;24.57;36.24
65472;DHT22;52068;50.710;14.492;2023-04-03T08:47:38;25.73;34.27
65472;DHT22;52068;50.710;14.492;2023-04-03T08:50:06;26.17;33.57
65472;DHT22;52068;50.710;14.492;2023-04-03T08:52:36;26.43;33.07
65472;DHT22;52068;50.710;14.492;2023-04-03T08:55:25;26.55;32.73
65472;DHT22;52068;50.710;14.492;2023-04-03T08:57:48;26.54;32.81
65472;DHT22;52068;50.710;14.492;2023-04-03T09:02:41;26.20;33.27
65472;DHT22;52068;50.710;14.492;2023-04-03T09:05:15;26.00;33.62
65472;DHT22;52068;50.710;14.492;2023-04-03T09:10:29;25.72;34.08
65472;DHT22;52068;50.710;14.492;2023-04-03T09:13:08;25.55;34.33
65472;DHT22;52068;50.710;14.492;2023-04-03T09:15:35;25.36;34.50
65472;DHT22;52068;50.710;14.492;2023-04-03T09:18:15;25.26;34.82
65472;DHT22;52068;50.710;14.492;2023-04-03T09:23:22;24.87;35.30
65472;DHT22;52068;50.710;14.492;2023-04-03T09:25:48;24.73;35.71
65472;DHT22;52068;50.710;14.492;2023-04-03T09:28:14;24.57;36.05
65472;DHT22;52068;50.710;14.492;2023-04-03T09:30:39;24.50;36.30
65472;DHT22;52068;50.710;14.492;2023-04-03T09:33:04;24.52;36.25
65472;DHT22;52068;50.710;14.492;2023-04-03T09:35:32;24.70;35.92
65472;DHT22;52068;50.710;14.492;2023-04-03T09:37:59;24.99;35.49
65472;DHT22;52068;50.710;14.492;2023-04-03T09:42:50;25.49;34.60
65472;DHT22;52068;50.710;14.492;2023-04-03T09:45:24;25.62;34.41
65472;DHT22;52068;50.710;14.492;2023-04-03T09:48:03;25.65;34.25
65472;DHT22;52068;50.710;14.492;2023-04-03T09:50:30;25.61;34.29
65472;DHT22;52068;50.710;14.492;2023-04-03T09:52:55;25.56;34.26
65472;DHT22;52068;50.710;14.492;2023-04-03T09:55:25;25.46;33.72
65472;DHT22;52068;50.710;14.492;2023-04-03T09:58:00;25.31;34.50
65472;DHT22;52068;50.710;14.492;2023-04-03T10:02:53;25.01;34.74
65472;DHT22;52068;50.710;14.492;2023-04-03T10:05:32;24.84;35.09
65472;DHT22;52068;50.710;14.492;2023-04-03T10:10:39;24.47;35.65
65472;DHT22;52068;50.710;14.492;2023-04-03T10:13:18;24.36;35.77
65472;DHT22;52068;50.710;14.492;2023-04-03T10:15:48;24.34;36.16
65472;DHT22;52068;50.710;14.492;2023-04-03T10:18:21;24.56;35.89
65472;DHT22;52068;50.710;14.492;2023-04-03T10:20:51;24.98;35.24
65472;DHT22;52068;50.710;14.492;2023-04-03T10:23:33;25.41;34.59
65472;DHT22;52068;50.710;14.492;2023-04-03T10:26:23;25.82;33.92
65472;DHT22;52068;50.710;14.492;2023-04-03T10:28:57;26.03;33.62
65472;DHT22;52068;50.710;14.492;2023-04-03T10:31:37;26.06;33.59
65472;DHT22;52068;50.710;14.492;2023-04-03T10:46:35;25.38;34.44
65472;DHT22;52068;50.710;14.492;2023-04-03T10:49:50;25.26;34.72
65472;DHT22;52068;50.710;14.492;2023-04-03T10:51:48;25.07;34.86
65472;DHT22;52068;50.710;14.492;2023-04-03T10:56:47;24.73;35.27
65472;DHT22;52068;50.710;14.492;2023-04-03T11:01:58;24.46;36.02
65472;DHT22;52068;50.710;14.492;2023-04-03T11:04:25;24.37;36.34
65472;DHT22;52068;50.710;14.492;2023-04-03T11:06:53;24.59;36.06
65472;DHT22;52068;50.710;14.492;2023-04-03T11:09:27;25.26;35.03
65472;DHT22;52068;50.710;14.492;2023-04-03T11:11:55;26.28;33.53
65472;DHT22;52068;50.710;14.492;2023-04-03T11:14:26;27.17;32.08
65472;DHT22;52068;50.710;14.492;2023-04-03T11:22:23;28.65;29.85
65472;DHT22;52068;50.710;14.492;2023-04-03T11:25:22;28.70;29.73
65472;DHT22;52068;50.710;14.492;2023-04-03T11:27:47;28.56;29.96
65472;DHT22;52068;50.710;14.492;2023-04-03T11:30:22;28.31;30.28
65472;DHT22;52068;50.710;14.492;2023-04-03T11:32:52;28.01;30.72
65472;DHT22;52068;50.710;14.492;2023-04-03T11:35:19;27.73;31.18
65472;DHT22;52068;50.710;14.492;2023-04-03T11:37:45;27.49;31.59
65472;DHT22;52068;50.710;14.492;2023-04-03T11:42:41;26.91;32.45
65472;DHT22;52068;50.710;14.492;2023-04-03T11:47:49;26.45;33.15
65472;DHT22;52068;50.710;14.492;2023-04-03T11:52:56;26.01;33.91
65472;DHT22;52068;50.710;14.492;2023-04-03T12:05:49;25.01;35.66
65472;DHT22;52068;50.710;14.492;2023-04-03T12:13:32;26.48;33.49
65472;DHT22;52068;50.710;14.492;2023-04-03T12:15:58;27.10;32.43
65472;DHT22;52068;50.710;14.492;2023-04-03T12:18:31;27.58;31.66
65472;DHT22;52068;50.710;14.492;2023-04-03T12:21:04;27.83;31.21
65472;DHT22;52068;50.710;14.492;2023-04-03T12:28:39;27.78;31.28
65472;DHT22;52068;50.710;14.492;2023-04-03T12:31:05;27.61;31.55
65472;DHT22;52068;50.710;14.492;2023-04-03T12:33:43;27.39;31.86
65472;DHT22;52068;50.710;14.492;2023-04-03T12:36:26;27.10;32.31
65472;DHT22;52068;50.710;14.492;2023-04-03T12:41:23;26.56;33.23
65472;DHT22;52068;50.710;14.492;2023-04-03T12:44:00;26.35;33.61
65472;DHT22;52068;50.710;14.492;2023-04-03T12:46:28;26.12;33.92
65472;DHT22;52068;50.710;14.492;2023-04-03T12:48:57;25.94;34.24
65472;DHT22;52068;50.710;14.492;2023-04-03T12:53:51;25.61;34.77
65472;DHT22;52068;50.710;14.492;2023-04-03T12:58:52;25.18;35.41
65472;DHT22;52068;50.710;14.492;2023-04-03T13:01:21;25.03;35.73
65472;DHT22;52068;50.710;14.492;2023-04-03T13:03:49;24.91;35.94
65472;DHT22;52068;50.710;14.492;2023-04-03T13:06:23;25.03;35.83
65472;DHT22;52068;50.710;14.492;2023-04-03T13:08:52;25.41;35.28
65472;DHT22;52068;50.710;14.492;2023-04-03T13:11:17;25.92;34.54
65472;DHT22;52068;50.710;14.492;2023-04-03T13:13:55;26.40;33.70
65472;DHT22;52068;50.710;14.492;2023-04-03T13:16:20;26.76;33.01
65472;DHT22;52068;50.710;14.492;2023-04-03T13:18:49;27.03;32.59
65472;DHT22;52068;50.710;14.492;2023-04-03T13:21:17;27.15;32.38
65472;DHT22;52068;50.710;14.492;2023-04-03T13:23:45;27.03;32.41
65472;DHT22;52068;50.710;14.492;2023-04-03T13:26:11;26.94;32.63
65472;DHT22;52068;50.710;14.492;2023-04-03T13:28:38;26.84;32.81
65472;DHT22;52068;50.710;14.492;2023-04-03T13:31:06;26.69;32.94
65472;DHT22;52068;50.710;14.492;2023-04-03T13:33:32;26.52;33.23
65472;DHT22;52068;50.710;14.492;2023-04-03T13:36:03;26.31;33.60
65472;DHT22;52068;50.710;14.492;2023-04-03T13:38:30;26.06;33.94
65472;DHT22;52068;50.710;14.492;2023-04-03T13:40:59;25.87;34.21
65472;DHT22;52068;50.710;14.492;2023-04-03T13:43:28;25.70;34.46
65472;DHT22;52068;50.710;14.492;2023-04-03T13:48:19;25.35;35.00
65472;DHT22;52068;50.710;14.492;2023-04-03T13:51:07;25.21;35.27
65472;DHT22;52068;50.710;14.492;2023-04-03T13:53:41;25.05;35.50
65472;DHT22;52068;50.710;14.492;2023-04-03T13:56:08;24.98;35.64
65472;DHT22;52068;50.710;14.492;2023-04-03T13:58:34;25.03;35.63
65472;DHT22;52068;50.710;14.492;2023-04-03T14:03:28;25.25;35.19
65472;DHT22;52068;50.710;14.492;2023-04-03T14:05:54;25.36;34.96
65472;DHT22;52068;50.710;14.492;2023-04-03T14:08:20;25.38;35.03
65472;DHT22;52068;50.710;14.492;2023-04-03T14:10:45;25.32;35.04
65472;DHT22;52068;50.710;14.492;2023-04-03T14:13:15;25.28;35.17
65472;DHT22;52068;50.710;14.492;2023-04-03T14:15:41;25.16;35.29
65472;DHT22;52068;50.710;14.492;2023-04-03T14:18:10;25.05;35.45
65472;DHT22;52068;50.710;14.492;2023-04-03T14:20:35;24.95;35.56
65472;DHT22;52068;50.710;14.492;2023-04-03T14:23:00;24.83;35.71
65472;DHT22;52068;50.710;14.492;2023-04-03T14:25:26;24.67;35.92
65472;DHT22;52068;50.710;14.492;2023-04-03T14:27:52;24.53;36.20
65472;DHT22;52068;50.710;14.492;2023-04-03T14:30:26;24.39;36.49
65472;DHT22;52068;50.710;14.492;2023-04-03T14:32:51;24.22;36.77
65472;DHT22;52068;50.710;14.492;2023-04-03T14:35:17;24.17;37.28
65472;DHT22;52068;50.710;14.492;2023-04-03T14:37:43;24.36;37.24
65472;DHT22;52068;50.710;14.492;2023-04-03T14:40:11;24.77;36.80
65472;DHT22;52068;50.710;14.492;2023-04-03T14:42:37;25.39;35.80
65472;DHT22;52068;50.710;14.492;2023-04-03T14:45:05;26.00;34.85
65472;DHT22;52068;50.710;14.492;2023-04-03T14:47:31;26.55;33.97
65472;DHT22;52068;50.710;14.492;2023-04-03T14:49:57;26.88;33.42
65472;DHT22;52068;50.710;14.492;2023-04-03T14:52:27;27.02;33.14
65472;DHT22;52068;50.710;14.492;2023-04-03T14:54:53;27.03;33.05
65472;DHT22;52068;50.710;14.492;2023-04-03T14:57:19;26.94;33.21
65472;DHT22;52068;50.710;14.492;2023-04-03T14:59:45;26.84;33.37
65472;DHT22;52068;50.710;14.492;2023-04-03T15:02:31;26.69;33.50
65472;DHT22;52068;50.710;14.492;2023-04-03T15:04:56;26.47;33.82
65472;DHT22;52068;50.710;14.492;2023-04-03T15:07:22;26.30;34.06
65472;DHT22;52068;50.710;14.492;2023-04-03T15:09:48;26.10;34.26
65472;DHT22;52068;50.710;14.492;2023-04-03T15:12:13;25.94;34.59
65472;DHT22;52068;50.710;14.492;2023-04-03T15:14:39;25.73;34.88
65472;DHT22;52068;50.710;14.492;2023-04-03T15:17:04;25.55;35.22
65472;DHT22;52068;50.710;14.492;2023-04-03T15:19:32;25.35;35.52
65472;DHT22;52068;50.710;14.492;2023-04-03T15:22:00;25.16;35.92
65472;DHT22;52068;50.710;14.492;2023-04-03T15:24:25;24.96;36.30
65472;DHT22;52068;50.710;14.492;2023-04-03T15:26:50;24.85;36.48
65472;DHT22;52068;50.710;14.492;2023-04-03T15:29:16;24.92;36.53
65472;DHT22;52068;50.710;14.492;2023-04-03T15:31:41;25.28;36.00
65472;DHT22;52068;50.710;14.492;2023-04-03T15:34:06;25.86;35.10
65472;DHT22;52068;50.710;14.492;2023-04-03T15:36:31;26.51;33.98
65472;DHT22;52068;50.710;14.492;2023-04-03T15:38:57;27.16;33.02
65472;DHT22;52068;50.710;14.492;2023-04-03T15:41:22;27.70;32.27
65472;DHT22;52068;50.710;14.492;2023-04-03T15:43:47;27.94;31.92
65472;DHT22;52068;50.710;14.492;2023-04-03T15:46:12;27.95;31.91
65472;DHT22;52068;50.710;14.492;2023-04-03T15:48:38;27.93;31.90
65472;DHT22;52068;50.710;14.492;2023-04-03T15:51:03;27.80;32.07
65472;DHT22;52068;50.710;14.492;2023-04-03T15:53:29;27.60;32.34
65472;DHT22;52068;50.710;14.492;2023-04-03T15:55:55;27.39;32.62
65472;DHT22;52068;50.710;14.492;2023-04-03T15:58:20;27.17;32.92
65472;DHT22;52068;50.710;14.492;2023-04-03T16:00:45;26.95;33.26
65472;DHT22;52068;50.710;14.492;2023-04-03T16:03:12;26.75;33.55
65472;DHT22;52068;50.710;14.492;2023-04-03T16:05:38;26.55;33.83
65472;DHT22;52068;50.710;14.492;2023-04-03T16:08:04;26.34;34.06
65472;DHT22;52068;50.710;14.492;2023-04-03T16:10:30;26.10;34.43
65472;DHT22;52068;50.710;14.492;2023-04-03T16:12:55;25.90;34.64
65472;DHT22;52068;50.710;14.492;2023-04-03T16:15:21;25.70;34.76
65472;DHT22;52068;50.710;14.492;2023-04-03T16:17:46;25.49;35.15
65472;DHT22;52068;50.710;14.492;2023-04-03T16:20:13;25.28;35.47
65472;DHT22;52068;50.710;14.492;2023-04-03T16:22:39;25.12;35.83
65472;DHT22;52068;50.710;14.492;2023-04-03T16:25:05;25.21;35.80
65472;DHT22;52068;50.710;14.492;2023-04-03T16:27:31;25.65;35.10
65472;DHT22;52068;50.710;14.492;2023-04-03T16:29:56;26.23;34.25
65472;DHT22;52068;50.710;14.492;2023-04-03T16:32:22;26.89;33.32
65472;DHT22;52068;50.710;14.492;2023-04-03T16:34:48;27.51;32.22
65472;DHT22;52068;50.710;14.492;2023-04-03T16:37:13;27.87;31.65
65472;DHT22;52068;50.710;14.492;2023-04-03T16:39:39;28.08;31.35
65472;DHT22;52068;50.710;14.492;2023-04-03T16:42:05;28.02;31.42
65472;DHT22;52068;50.710;14.492;2023-04-03T16:44:30;27.98;31.45